createdAt,value
2022-10-21T00:00:38.682Z,59.36
2022-10-21T00:03:05.313Z,59.63
2022-10-21T00:05:31.917Z,59.45
2022-10-21T00:07:58.531Z,60.02
2022-10-21T00:10:25.191Z,59.77
2022-10-21T00:12:51.859Z,59.63
2022-10-21T00:15:18.477Z,59.43
2022-10-21T00:17:45.083Z,59.24
2022-10-21T00:20:11.739Z,59.12
2022-10-21T00:22:38.642Z,59.06
2022-10-21T00:25:05.466Z,59.10
2022-10-21T00:27:32.051Z,58.68
2022-10-21T00:29:58.661Z,58.63
2022-10-21T00:32:25.284Z,58.28
2022-10-21T00:34:51.874Z,58.24
2022-10-21T00:37:18.492Z,58.10
2022-10-21T00:39:45.108Z,57.82
2022-10-21T00:42:11.707Z,57.66
2022-10-21T00:44:38.310Z,57.65
2022-10-21T00:47:04.904Z,58.09
2022-10-21T00:49:31.520Z,57.98
2022-10-21T00:51:58.130Z,57.74
2022-10-21T00:54:24.713Z,58.02
2022-10-21T00:59:22.848Z,58.62
2022-10-21T01:01:49.462Z,58.59
2022-10-21T01:04:16.079Z,58.37
2022-10-21T01:06:42.669Z,57.80
2022-10-21T01:09:09.372Z,58.13
2022-10-21T01:11:36.036Z,58.60
2022-10-21T01:14:02.668Z,58.38
2022-10-21T01:16:29.307Z,58.58
2022-10-21T01:18:55.923Z,58.99
2022-10-21T01:21:22.503Z,58.37
2022-10-21T01:23:49.114Z,58.28
2022-10-21T01:26:15.729Z,58.29
2022-10-21T01:28:42.315Z,57.76
2022-10-21T01:31:08.931Z,58.47
2022-10-21T01:33:35.525Z,58.26
2022-10-21T01:36:02.135Z,58.27
2022-10-21T01:38:28.756Z,58.90
2022-10-21T01:40:55.344Z,58.24
2022-10-21T01:43:21.977Z,58.30
2022-10-21T01:45:48.570Z,58.10
2022-10-21T01:48:15.188Z,57.79
2022-10-21T01:50:41.797Z,57.77
2022-10-21T01:53:08.415Z,57.35
2022-10-21T01:55:35.007Z,57.48
2022-10-21T01:58:01.623Z,57.60
2022-10-21T02:00:28.228Z,57.50
2022-10-21T02:02:54.835Z,57.49
2022-10-21T02:05:21.472Z,57.54
2022-10-21T02:07:48.084Z,57.36
2022-10-21T02:10:14.669Z,57.63
2022-10-21T02:12:41.358Z,57.50
2022-10-21T02:15:08.114Z,57.47
2022-10-21T02:17:34.720Z,57.27
2022-10-21T02:20:01.344Z,56.98
2022-10-21T02:22:27.956Z,57.32
2022-10-21T02:24:54.577Z,56.92
2022-10-21T02:27:21.187Z,57.31
2022-10-21T02:29:47.796Z,57.02
2022-10-21T02:32:14.402Z,57.50
2022-10-21T02:34:40.989Z,57.76
2022-10-21T02:37:07.606Z,57.76
2022-10-21T02:39:34.251Z,57.55
2022-10-21T02:42:00.840Z,57.28
2022-10-21T02:44:27.473Z,57.78
2022-10-21T02:46:54.056Z,58.26
2022-10-21T02:49:20.670Z,58.17
2022-10-21T02:51:47.287Z,58.04
2022-10-21T02:54:13.885Z,58.53
2022-10-21T02:56:40.475Z,58.87
2022-10-21T02:59:07.141Z,58.71
2022-10-21T03:01:33.790Z,58.36
2022-10-21T03:04:00.400Z,58.64
2022-10-21T03:06:26.990Z,58.23
2022-10-21T03:08:53.726Z,58.36
2022-10-21T03:11:20.421Z,58.69
2022-10-21T03:13:47.024Z,58.56
2022-10-21T03:16:13.701Z,58.28
2022-10-21T03:18:40.338Z,58.07
2022-10-21T03:21:06.943Z,58.11
2022-10-21T03:23:33.553Z,58.84
2022-10-21T03:26:00.139Z,58.37
2022-10-21T03:28:26.790Z,58.43
2022-10-21T03:30:53.405Z,58.43
2022-10-21T03:33:20.031Z,58.35
2022-10-21T03:35:46.615Z,58.49
2022-10-21T03:38:13.236Z,58.73
2022-10-21T03:40:39.829Z,58.22
2022-10-21T03:43:06.631Z,57.95
2022-10-21T03:45:33.272Z,58.29
2022-10-21T03:47:59.860Z,58.31
2022-10-21T03:50:26.908Z,58.14
2022-10-21T03:52:53.574Z,57.80
2022-10-21T03:55:20.236Z,58.61
2022-10-21T03:57:46.863Z,58.65
2022-10-21T04:02:45.027Z,58.43
2022-10-21T04:05:11.649Z,58.03
2022-10-21T04:07:38.475Z,58.43
2022-10-21T04:10:05.063Z,58.42
2022-10-21T04:12:31.684Z,58.18
2022-10-21T04:14:58.309Z,58.30
2022-10-21T04:17:24.911Z,58.58
2022-10-21T04:19:51.538Z,58.71
2022-10-21T04:22:18.151Z,59.33
2022-10-21T04:24:44.771Z,60.13
2022-10-21T04:27:11.595Z,60.03
2022-10-21T04:29:38.190Z,59.87
2022-10-21T04:32:04.896Z,59.26
2022-10-21T04:34:31.529Z,59.83
2022-10-21T04:37:01.108Z,59.72
2022-10-21T04:39:30.724Z,59.26
2022-10-21T04:41:57.376Z,59.59
2022-10-21T04:44:23.999Z,59.80
2022-10-21T04:46:50.583Z,59.42
2022-10-21T04:49:17.197Z,60.17
2022-10-21T04:51:43.839Z,60.86
2022-10-21T04:54:10.463Z,60.74
2022-10-21T04:56:37.103Z,60.18
2022-10-21T04:59:03.721Z,59.94
2022-10-21T05:01:30.463Z,60.20
2022-10-21T05:03:57.159Z,59.93
2022-10-21T05:06:26.956Z,59.92
2022-10-21T05:08:53.618Z,60.32
2022-10-21T05:11:20.278Z,60.31
2022-10-21T05:13:46.892Z,59.84
2022-10-21T05:16:13.513Z,59.59
2022-10-21T05:18:40.123Z,59.39
2022-10-21T05:21:06.755Z,59.17
2022-10-21T05:23:33.353Z,59.34
2022-10-21T05:25:59.971Z,59.32
2022-10-21T05:28:26.623Z,58.54
2022-10-21T05:30:53.289Z,58.57
2022-10-21T05:33:19.908Z,58.83
2022-10-21T05:35:46.530Z,58.71
2022-10-21T05:38:13.149Z,58.49
2022-10-21T05:40:39.863Z,58.74
2022-10-21T05:43:06.450Z,58.57
2022-10-21T05:45:33.092Z,58.22
2022-10-21T05:47:59.691Z,58.34
2022-10-21T05:50:26.312Z,58.93
2022-10-21T05:52:53.934Z,59.74
2022-10-21T05:55:22.319Z,59.61
2022-10-21T05:57:48.974Z,58.56
2022-10-21T06:00:15.679Z,58.69
2022-10-21T06:02:42.413Z,58.82
2022-10-21T06:05:09.041Z,58.92
2022-10-21T06:07:35.794Z,58.75
2022-10-21T06:10:02.662Z,58.31
2022-10-21T06:12:29.248Z,58.51
2022-10-21T06:14:55.860Z,58.14
2022-10-21T06:17:22.472Z,57.76
2022-10-21T06:19:51.015Z,58.78
2022-10-21T06:22:17.820Z,59.77
2022-10-21T06:24:44.482Z,60.62
2022-10-21T06:27:11.069Z,60.45
2022-10-21T06:29:37.711Z,60.89
2022-10-21T06:32:04.302Z,61.32
2022-10-21T06:34:30.919Z,61.18
2022-10-21T06:36:57.569Z,60.68
2022-10-21T06:39:24.197Z,60.15
2022-10-21T06:41:50.808Z,59.63
2022-10-21T06:44:17.407Z,58.79
2022-10-21T06:46:44.028Z,58.57
2022-10-21T06:49:10.668Z,58.32
2022-10-21T06:51:37.295Z,58.30
2022-10-21T06:54:03.941Z,58.25
2022-10-21T06:56:30.554Z,57.97
2022-10-21T06:58:57.211Z,57.08
2022-10-21T07:01:34.921Z,57.12
2022-10-21T07:04:08.007Z,58.69
2022-10-21T07:06:34.625Z,59.05
2022-10-21T07:09:01.332Z,58.72
2022-10-21T07:11:28.011Z,57.80
2022-10-21T07:13:54.685Z,58.15
2022-10-21T07:16:21.328Z,59.07
2022-10-21T07:18:47.924Z,59.89
2022-10-21T07:21:14.549Z,58.79
2022-10-21T07:23:41.183Z,59.16
2022-10-21T07:26:07.803Z,58.80
2022-10-21T07:28:34.393Z,57.90
2022-10-21T07:31:01.095Z,57.44
2022-10-21T07:33:27.693Z,58.66
2022-10-21T07:35:54.329Z,58.29
2022-10-21T07:38:22.818Z,57.54
2022-10-21T07:40:49.646Z,57.61
2022-10-21T07:43:16.276Z,57.72
2022-10-21T07:45:42.872Z,57.69
2022-10-21T07:48:09.493Z,57.69
2022-10-21T07:50:36.099Z,57.60
2022-10-21T07:53:11.930Z,58.30
2022-10-21T07:55:39.200Z,58.77
2022-10-21T07:58:05.860Z,60.12
2022-10-21T08:00:32.451Z,60.52
2022-10-21T08:02:59.055Z,59.40
2022-10-21T08:05:25.678Z,58.61
2022-10-21T08:07:52.304Z,58.42
2022-10-21T08:10:18.922Z,57.52
2022-10-21T08:12:45.519Z,57.26
2022-10-21T08:15:12.132Z,57.88
2022-10-21T08:17:38.720Z,57.20
2022-10-21T08:20:05.385Z,56.80
2022-10-21T08:22:32.017Z,57.18
2022-10-21T08:24:58.634Z,56.27
2022-10-21T08:27:25.263Z,55.78
2022-10-21T08:29:51.854Z,56.23
2022-10-21T08:32:18.434Z,56.27
2022-10-21T08:34:45.055Z,56.39
2022-10-21T08:37:11.699Z,57.01
2022-10-21T08:39:38.360Z,59.68
2022-10-21T08:42:04.957Z,59.95
2022-10-21T08:44:31.565Z,58.90
2022-10-21T08:46:58.198Z,59.45
2022-10-21T08:49:27.318Z,59.49
2022-10-21T08:51:56.540Z,58.86
2022-10-21T08:54:23.161Z,57.51
2022-10-21T08:56:49.769Z,57.04
2022-10-21T08:59:16.372Z,56.13
2022-10-21T09:01:43.005Z,57.65
2022-10-21T09:04:09.608Z,58.76
2022-10-21T09:06:36.206Z,58.80
2022-10-21T09:09:02.890Z,58.19
2022-10-21T09:11:29.520Z,57.44
2022-10-21T09:13:56.161Z,56.62
2022-10-21T09:16:22.763Z,58.49
2022-10-21T09:18:49.363Z,57.58
2022-10-21T09:21:15.985Z,57.67
2022-10-21T09:23:42.583Z,56.53
2022-10-21T09:26:09.199Z,55.17
2022-10-21T09:28:35.830Z,54.71
2022-10-21T09:31:02.421Z,53.48
2022-10-21T09:33:29.026Z,52.91
2022-10-21T09:35:55.661Z,54.57
2022-10-21T09:38:22.247Z,55.70
2022-10-21T09:40:48.881Z,56.05
2022-10-21T09:43:15.507Z,55.74
2022-10-21T09:45:42.126Z,57.32
2022-10-21T09:48:08.739Z,57.06
2022-10-21T09:50:35.345Z,54.53
2022-10-21T09:53:01.977Z,55.10
2022-10-21T09:55:28.582Z,56.90
2022-10-21T09:57:55.189Z,57.84
2022-10-21T10:00:21.774Z,57.28
2022-10-21T10:02:48.405Z,56.24
2022-10-21T10:05:14.998Z,56.16
2022-10-21T10:07:41.623Z,57.43
2022-10-21T10:10:08.262Z,57.50
2022-10-21T10:12:34.883Z,57.36
2022-10-21T10:15:01.482Z,57.03
2022-10-21T10:17:28.104Z,57.76
2022-10-21T10:19:55.580Z,56.79
2022-10-21T10:22:22.176Z,56.83
2022-10-21T10:24:48.816Z,56.66
2022-10-21T10:27:15.453Z,54.86
2022-10-21T10:29:42.084Z,55.58
2022-10-21T10:32:08.701Z,54.12
2022-10-21T10:34:35.394Z,53.46
2022-10-21T10:37:02.010Z,52.96
2022-10-21T10:39:28.618Z,51.75
2022-10-21T10:41:55.224Z,51.60
2022-10-21T10:44:21.815Z,51.98
2022-10-21T10:49:19.970Z,52.01
2022-10-21T10:51:46.640Z,53.24
2022-10-21T10:54:13.275Z,53.66
2022-10-21T10:56:39.873Z,53.19
2022-10-21T10:59:06.497Z,53.99
2022-10-21T11:01:33.265Z,52.31
2022-10-21T11:03:59.975Z,52.01
2022-10-21T11:06:26.599Z,51.23
2022-10-21T11:08:53.269Z,51.39
2022-10-21T11:11:20.113Z,52.07
2022-10-21T11:13:46.795Z,51.75
2022-10-21T11:16:13.406Z,51.76
2022-10-21T11:18:40.022Z,51.18
2022-10-21T11:21:06.637Z,52.33
2022-10-21T11:23:33.249Z,52.99
2022-10-21T11:25:59.863Z,53.21
2022-10-21T11:28:26.476Z,52.87
2022-10-21T11:30:53.083Z,52.20
2022-10-21T11:33:19.701Z,51.60
2022-10-21T11:35:46.353Z,51.54
2022-10-21T11:38:12.957Z,51.39
2022-10-21T11:40:39.588Z,52.68
2022-10-21T11:43:06.250Z,54.22
2022-10-21T11:45:32.867Z,52.96
2022-10-21T11:47:59.508Z,51.98
2022-10-21T11:50:26.132Z,52.84
2022-10-21T11:52:52.737Z,52.94
2022-10-21T11:55:19.375Z,51.41
2022-10-21T11:57:45.978Z,51.40
2022-10-21T12:00:12.570Z,51.17
2022-10-21T12:02:42.015Z,51.18
2022-10-21T12:05:08.826Z,51.98
2022-10-21T12:07:35.439Z,51.04
2022-10-21T12:10:02.076Z,50.12
2022-10-21T12:12:28.679Z,51.07
2022-10-21T12:14:55.262Z,51.45
2022-10-21T12:17:21.887Z,51.44
2022-10-21T12:19:48.534Z,51.60
2022-10-21T12:22:15.164Z,50.93
2022-10-21T12:24:41.772Z,50.29
2022-10-21T12:27:08.416Z,50.83
2022-10-21T12:29:35.012Z,50.98
2022-10-21T12:32:01.619Z,51.78
2022-10-21T12:34:28.243Z,52.50
2022-10-21T12:36:54.836Z,52.53
2022-10-21T12:39:21.491Z,51.78
2022-10-21T12:41:48.089Z,52.56
2022-10-21T12:44:14.720Z,52.21
2022-10-21T12:46:41.316Z,51.87
2022-10-21T12:49:07.930Z,51.69
2022-10-21T12:51:34.608Z,51.51
2022-10-21T12:54:01.209Z,51.91
2022-10-21T12:56:27.823Z,51.90
2022-10-21T12:58:54.426Z,52.96
2022-10-21T13:01:21.275Z,54.13
2022-10-21T13:03:47.972Z,54.31
2022-10-21T13:06:14.704Z,54.69
2022-10-21T13:08:41.490Z,55.37
2022-10-21T13:11:08.138Z,54.93
2022-10-21T13:13:34.787Z,55.40
2022-10-21T13:16:01.371Z,54.58
2022-10-21T13:20:59.707Z,54.17
2022-10-21T13:23:26.378Z,53.76
2022-10-21T13:25:52.992Z,55.09
2022-10-21T13:28:19.642Z,55.51
2022-10-21T13:30:46.331Z,55.37
2022-10-21T13:33:12.940Z,54.53
2022-10-21T13:35:39.676Z,54.13
2022-10-21T13:38:06.312Z,53.90
2022-10-21T13:40:32.993Z,53.34
2022-10-21T13:42:59.660Z,53.49
2022-10-21T13:45:26.378Z,54.46
2022-10-21T13:47:53.072Z,54.96
2022-10-21T13:50:19.666Z,54.58
2022-10-21T13:52:46.299Z,54.54
2022-10-21T13:55:12.902Z,54.67
2022-10-21T13:57:39.838Z,53.96
2022-10-21T14:00:06.643Z,54.00
2022-10-21T14:02:33.245Z,54.11
2022-10-21T14:04:59.889Z,54.36
2022-10-21T14:07:26.495Z,54.03
2022-10-21T14:09:53.118Z,53.76
2022-10-21T14:12:19.727Z,54.35
2022-10-21T14:14:46.345Z,54.77
2022-10-21T14:17:12.954Z,54.91
2022-10-21T14:19:39.562Z,54.04
2022-10-21T14:24:33.721Z,52.87
2022-10-21T14:27:00.356Z,52.52
2022-10-21T14:29:27.018Z,52.57
2022-10-21T14:31:53.615Z,52.98
2022-10-21T14:34:20.226Z,53.24
2022-10-21T14:36:46.811Z,53.51
2022-10-21T14:39:13.397Z,53.11
2022-10-21T14:41:40.009Z,53.36
2022-10-21T14:44:06.607Z,54.21
2022-10-21T14:46:33.256Z,55.28
2022-10-21T14:48:59.899Z,54.56
2022-10-21T14:51:26.903Z,55.06
2022-10-21T14:53:53.545Z,54.95
2022-10-21T14:56:20.189Z,55.28
2022-10-21T14:58:46.785Z,55.26
2022-10-21T15:01:13.385Z,54.93
2022-10-21T15:03:39.996Z,54.56
2022-10-21T15:06:06.642Z,54.40
2022-10-21T15:08:33.296Z,54.79
2022-10-21T15:10:59.936Z,55.00
2022-10-21T15:13:26.581Z,56.83
2022-10-21T15:15:54.590Z,57.73
2022-10-21T15:18:21.332Z,57.45
2022-10-21T15:20:47.960Z,57.49
2022-10-21T15:23:16.652Z,56.76
2022-10-21T15:25:45.854Z,56.91
2022-10-21T15:28:12.451Z,56.21
2022-10-21T15:30:39.112Z,56.15
2022-10-21T15:33:05.696Z,55.92
2022-10-21T15:35:32.351Z,55.70
2022-10-21T15:37:58.967Z,55.71
2022-10-21T15:40:25.594Z,55.46
2022-10-21T15:42:52.228Z,55.85
2022-10-21T15:45:18.827Z,55.71
2022-10-21T15:47:45.440Z,55.54
2022-10-21T15:50:12.058Z,55.45
2022-10-21T15:52:38.699Z,55.94
2022-10-21T15:55:05.335Z,56.00
2022-10-21T15:57:31.941Z,56.13
2022-10-21T15:59:58.525Z,56.07
2022-10-21T16:02:25.149Z,56.11
2022-10-21T16:04:51.773Z,56.46
2022-10-21T16:07:18.361Z,56.40
2022-10-21T16:09:45.038Z,56.65
2022-10-21T16:12:11.653Z,56.44
2022-10-21T16:14:38.246Z,56.48
2022-10-21T16:17:04.931Z,56.60
2022-10-21T16:19:31.594Z,56.95
2022-10-21T16:21:58.205Z,57.11
2022-10-21T16:24:24.790Z,57.29
2022-10-21T16:26:51.422Z,57.42
2022-10-21T16:31:49.521Z,57.50
2022-10-21T16:34:16.128Z,57.97
2022-10-21T16:36:42.725Z,57.87
2022-10-21T16:39:09.355Z,58.40
2022-10-21T16:41:35.977Z,58.44
2022-10-21T16:44:02.598Z,58.63
2022-10-21T16:46:29.235Z,58.50
2022-10-21T16:48:55.854Z,59.15
2022-10-21T16:51:22.455Z,59.08
2022-10-21T16:53:49.052Z,59.07
2022-10-21T16:56:15.694Z,58.70
2022-10-21T16:58:42.384Z,58.61
2022-10-21T17:01:09.053Z,59.41
2022-10-21T17:03:35.753Z,59.51
2022-10-21T17:06:02.357Z,58.83
2022-10-21T17:08:29.020Z,58.91
2022-10-21T17:10:55.724Z,58.67
2022-10-21T17:13:22.393Z,59.21
2022-10-21T17:15:48.995Z,59.05
2022-10-21T17:18:15.943Z,59.90
2022-10-21T17:20:42.661Z,59.78
2022-10-21T17:23:09.293Z,59.53
2022-10-21T17:25:35.905Z,59.91
2022-10-21T17:28:02.529Z,59.97
2022-10-21T17:30:29.126Z,59.73
2022-10-21T17:32:55.721Z,60.06
2022-10-21T17:35:22.355Z,60.01
2022-10-21T17:37:48.976Z,60.13
2022-10-21T17:40:15.596Z,59.97
2022-10-21T17:42:42.494Z,60.33
2022-10-21T17:45:09.084Z,60.03
2022-10-21T17:47:35.669Z,59.96
2022-10-21T17:50:02.284Z,59.87
2022-10-21T17:52:28.906Z,59.96
2022-10-21T17:54:55.537Z,60.00
2022-10-21T17:57:22.170Z,60.36
2022-10-21T17:59:48.848Z,60.31
2022-10-21T18:02:15.500Z,60.53
2022-10-21T18:04:42.126Z,61.07
2022-10-21T18:07:09.912Z,60.94
2022-10-21T18:09:37.551Z,60.78
2022-10-21T18:12:04.552Z,60.55
2022-10-21T18:14:31.328Z,61.72
2022-10-21T18:16:57.971Z,61.46
2022-10-21T18:19:24.582Z,61.41
2022-10-21T18:21:51.205Z,61.88
2022-10-21T18:24:17.818Z,61.17
2022-10-21T18:26:44.478Z,61.64
2022-10-21T18:29:11.088Z,61.58
2022-10-21T18:31:37.761Z,61.68
2022-10-21T18:34:04.396Z,61.43
2022-10-21T18:36:31.002Z,60.94
2022-10-21T18:38:57.694Z,60.92
2022-10-21T18:41:24.324Z,60.74
2022-10-21T18:43:50.931Z,61.44
2022-10-21T18:46:17.582Z,61.27
2022-10-21T18:48:44.185Z,61.34
2022-10-21T18:51:11.430Z,61.42
2022-10-21T18:53:38.043Z,61.30
2022-10-21T18:56:04.661Z,61.35
2022-10-21T18:58:31.323Z,61.59
2022-10-21T19:00:57.974Z,61.62
2022-10-21T19:03:24.628Z,61.60
2022-10-21T19:05:51.262Z,61.56
2022-10-21T19:08:17.886Z,61.84
2022-10-21T19:10:44.487Z,61.79
2022-10-21T19:13:11.129Z,61.78
2022-10-21T19:15:37.793Z,61.88
2022-10-21T19:18:04.494Z,62.42
2022-10-21T19:20:31.099Z,62.05
2022-10-21T19:22:57.702Z,62.31
2022-10-21T19:25:24.341Z,62.29
2022-10-21T19:27:50.956Z,62.01
2022-10-21T19:30:17.586Z,62.22
2022-10-21T19:32:44.194Z,62.47
2022-10-21T19:35:10.785Z,62.83
2022-10-21T19:37:37.452Z,63.75
2022-10-21T19:40:04.054Z,63.52
2022-10-21T19:42:30.654Z,63.16
2022-10-21T19:44:57.279Z,62.93
2022-10-21T19:47:24.888Z,62.56
2022-10-21T19:49:51.562Z,62.61
2022-10-21T19:52:18.142Z,62.18
2022-10-21T19:54:44.761Z,62.46
2022-10-21T19:57:11.383Z,62.57
2022-10-21T19:59:37.997Z,63.09
2022-10-21T20:02:04.658Z,64.32
2022-10-21T20:04:33.787Z,64.08
2022-10-21T20:07:01.965Z,63.33
2022-10-21T20:09:28.611Z,63.33
2022-10-21T20:11:55.234Z,62.96
2022-10-21T20:14:21.947Z,62.70
2022-10-21T20:16:48.567Z,63.32
2022-10-21T20:19:15.161Z,63.01
2022-10-21T20:21:41.760Z,62.88
2022-10-21T20:24:08.400Z,62.56
2022-10-21T20:26:35.098Z,62.83
2022-10-21T20:29:01.757Z,62.69
2022-10-21T20:31:28.350Z,63.03
2022-10-21T20:33:54.982Z,62.88
2022-10-21T20:36:21.579Z,63.22
2022-10-21T20:38:48.207Z,63.48
2022-10-21T20:41:14.796Z,63.37
2022-10-21T20:43:41.412Z,64.23
2022-10-21T20:46:08.037Z,64.11
2022-10-21T20:48:34.836Z,63.62
2022-10-21T20:51:01.455Z,63.93
2022-10-21T20:53:31.115Z,63.18
2022-10-21T20:55:58.026Z,63.04
2022-10-21T20:58:24.667Z,63.11
2022-10-21T21:00:51.254Z,63.59
2022-10-21T21:03:17.880Z,63.39
2022-10-21T21:05:44.504Z,63.19
2022-10-21T21:08:11.129Z,62.95
2022-10-21T21:10:37.795Z,63.68
2022-10-21T21:13:04.487Z,64.61
2022-10-21T21:15:31.115Z,64.08
2022-10-21T21:17:57.777Z,63.69
2022-10-21T21:20:24.369Z,64.14
2022-10-21T21:22:50.987Z,63.50
2022-10-21T21:25:17.615Z,63.44
2022-10-21T21:27:44.295Z,63.80
2022-10-21T21:30:10.897Z,63.99
2022-10-21T21:32:37.520Z,63.42
2022-10-21T21:35:06.047Z,63.51
2022-10-21T21:37:33.121Z,63.27
2022-10-21T21:39:59.809Z,64.05
2022-10-21T21:42:26.445Z,64.12
2022-10-21T21:44:53.045Z,63.75
2022-10-21T21:47:19.636Z,63.70
2022-10-21T21:49:46.281Z,63.31
2022-10-21T21:52:13.999Z,63.85
2022-10-21T21:54:40.625Z,63.94
2022-10-21T21:59:53.805Z,63.86
2022-10-21T22:02:20.412Z,63.59
2022-10-21T22:04:47.022Z,63.38
2022-10-21T22:07:13.643Z,63.36
2022-10-21T22:09:40.233Z,63.28
2022-10-21T22:12:06.871Z,63.03
2022-10-21T22:14:33.502Z,63.05
2022-10-21T22:17:00.117Z,63.04
2022-10-21T22:19:26.867Z,63.93
2022-10-21T22:21:53.501Z,64.49
2022-10-21T22:24:20.123Z,64.55
2022-10-21T22:26:46.742Z,64.12
2022-10-21T22:29:13.366Z,64.20
2022-10-21T22:31:39.971Z,64.34
2022-10-21T22:34:09.371Z,64.23
2022-10-21T22:36:38.551Z,63.63
2022-10-21T22:39:05.181Z,63.74
2022-10-21T22:41:31.805Z,63.66
2022-10-21T22:43:58.432Z,63.36
2022-10-21T22:46:40.411Z,63.17
2022-10-21T22:49:07.015Z,63.14
2022-10-21T22:51:33.640Z,63.04
2022-10-21T22:54:01.282Z,63.35
2022-10-21T22:56:28.131Z,63.38
2022-10-21T22:58:54.791Z,63.58
2022-10-21T23:01:21.409Z,63.57
2022-10-21T23:03:47.997Z,62.91
2022-10-21T23:06:14.611Z,63.00
2022-10-21T23:08:41.258Z,62.91
2022-10-21T23:11:07.898Z,63.13
2022-10-21T23:13:34.545Z,63.37
2022-10-21T23:16:01.141Z,63.40
2022-10-21T23:18:27.767Z,63.46
2022-10-21T23:20:54.370Z,63.55
2022-10-21T23:23:20.951Z,63.75
2022-10-21T23:25:47.552Z,63.80
2022-10-21T23:28:14.237Z,64.32
2022-10-21T23:30:40.877Z,64.59
2022-10-21T23:33:07.488Z,64.00
2022-10-21T23:35:34.100Z,64.27
2022-10-21T23:38:00.695Z,64.66
2022-10-21T23:40:27.305Z,64.41
2022-10-21T23:45:39.008Z,64.45
2022-10-21T23:48:05.679Z,64.94
2022-10-21T23:50:32.266Z,64.77
2022-10-21T23:52:58.905Z,64.86
2022-10-21T23:55:25.561Z,64.51
2022-10-21T23:57:52.179Z,64.77
